Time;durP1;ratioP1;P1;durP2;ratioP2;P2;SDS_P1;SDS_P2;PMS_P1;PMS_P2;Temp;Humidity;BMP_temperature;BMP_pressure;BME280_temperature;BME280_humidity;BME280_pressure;Samples;Min_cycle;Max_cycle;Signal;HPM_P1;HPM_P2
2023/05/01 00:01:54;;;;;;;5.03;3.92;;;14.90;99.90;;;;;;5034870;28;20063;-77
2023/05/01 00:04:21;;;;;;;8.10;4.05;;;14.90;99.90;;;;;;5032717;28;20053;-76
2023/05/01 00:06:48;;;;;;;6.13;4.07;;;14.90;99.90;;;;;;5026130;28;20416;-76
2023/05/01 00:09:15;;;;;;;7.25;3.83;;;14.90;99.90;;;;;;5032015;28;20056;-76
2023/05/01 00:11:41;;;;;;;4.78;3.95;;;14.90;99.90;;;;;;5037727;28;20736;-74
2023/05/01 00:14:08;;;;;;;5.57;4.53;;;14.80;99.90;;;;;;5032647;28;20049;-77
2023/05/01 00:16:35;;;;;;;7.07;4.50;;;14.80;99.90;;;;;;5037197;28;20053;-76
2023/05/01 00:19:03;;;;;;;6.25;4.40;;;14.80;99.90;;;;;;5034380;28;20050;-76
2023/05/01 00:21:30;;;;;;;8.60;4.50;;;14.80;99.90;;;;;;5030979;28;20722;-74
2023/05/01 00:23:56;;;;;;;7.47;4.65;;;14.80;99.90;;;;;;5030954;28;20056;-74
2023/05/01 00:26:28;;;;;;;5.97;4.10;;;14.80;99.90;;;;;;5034161;28;20052;-76
2023/05/01 00:28:55;;;;;;;7.28;4.35;;;14.70;99.90;;;;;;5033172;28;20435;-76
2023/05/01 00:31:24;;;;;;;8.45;4.38;;;14.70;99.90;;;;;;5033028;28;20041;-75
2023/05/01 00:33:51;;;;;;;7.03;4.15;;;14.70;99.90;;;;;;5026472;28;20042;-76
2023/05/01 00:36:17;;;;;;;7.05;4.40;;;14.70;99.90;;;;;;5021308;28;20137;-76
2023/05/01 00:38:45;;;;;;;6.85;4.45;;;14.70;99.90;;;;;;5032318;28;20053;-76
2023/05/01 00:41:12;;;;;;;7.28;4.63;;;14.70;99.90;;;;;;5034750;28;20077;-76
2023/05/01 00:43:38;;;;;;;6.35;4.50;;;14.70;99.90;;;;;;5026383;28;20049;-77
2023/05/01 00:46:06;;;;;;;7.60;5.53;;;14.60;99.90;;;;;;5035824;28;20056;-76
2023/05/01 00:48:33;;;;;;;8.90;5.40;;;14.60;99.90;;;;;;5032992;28;20049;-77
2023/05/01 00:51:03;;;;;;;7.88;5.22;;;14.60;99.90;;;;;;5036253;28;20041;-77
2023/05/01 00:53:31;;;;;;;5.63;4.75;;;14.60;99.90;;;;;;5015573;28;20136;-76
2023/05/01 00:55:59;;;;;;;8.05;5.15;;;14.60;99.90;;;;;;5036221;28;20419;-76
2023/05/01 00:58:26;;;;;;;9.15;5.80;;;14.60;99.90;;;;;;5033103;28;20050;-76
2023/05/01 01:00:54;;;;;;;9.15;5.90;;;14.60;99.90;;;;;;5033805;28;20049;-75
2023/05/01 01:03:20;;;;;;;7.05;5.57;;;14.60;99.90;;;;;;5033004;28;20089;-76
2023/05/01 01:06:05;;;;;;;10.52;6.07;;;14.60;99.90;;;;;;5033682;28;20050;-77
2023/05/01 01:08:42;;;;;;;8.45;5.90;;;14.60;99.90;;;;;;5036832;28;20543;-75
2023/05/01 01:11:24;;;;;;;7.45;5.15;;;14.60;99.90;;;;;;5009793;28;20053;-76
2023/05/01 01:14:11;;;;;;;6.57;4.93;;;14.60;99.90;;;;;;5035957;28;20416;-77
2023/05/01 01:16:50;;;;;;;6.00;5.05;;;14.60;99.90;;;;;;5036486;28;20057;-77
2023/05/01 01:19:38;;;;;;;8.73;5.78;;;14.60;99.90;;;;;;5035071;28;20052;-76
2023/05/01 01:22:14;;;;;;;6.53;5.57;;;14.60;99.90;;;;;;5035629;28;20044;-77
2023/05/01 01:25:05;;;;;;;6.13;5.43;;;14.60;99.90;;;;;;5035900;28;20045;-77
2023/05/01 01:27:53;;;;;;;7.32;5.13;;;14.50;99.90;;;;;;5035421;28;20041;-77
2023/05/01 01:30:55;;;;;;;8.38;5.43;;;14.60;99.90;;;;;;5035706;28;20060;-75
2023/05/01 01:33:41;;;;;;;5.70;4.88;;;14.50;99.90;;;;;;5035796;28;20103;-76
2023/05/01 01:36:14;;;;;;;6.53;4.63;;;14.50;99.90;;;;;;5034139;28;20049;-75
2023/05/01 01:39:02;;;;;;;5.28;4.55;;;14.50;99.90;;;;;;5036876;28;20055;-77
2023/05/01 01:41:33;;;;;;;7.68;4.70;;;14.50;99.90;;;;;;5034937;28;20049;-77
2023/05/01 01:44:05;;;;;;;4.85;4.35;;;14.50;99.90;;;;;;5029663;28;20049;-76
2023/05/01 01:46:36;;;;;;;7.60;4.75;;;14.50;99.90;;;;;;5034255;28;20068;-76
2023/05/01 01:49:08;;;;;;;5.38;4.20;;;14.50;99.90;;;;;;5032177;28;20131;-76
2023/05/01 01:51:38;;;;;;;7.18;4.60;;;14.50;99.90;;;;;;5035105;28;20053;-77
2023/05/01 01:54:06;;;;;;;6.38;4.20;;;14.50;99.90;;;;;;5036894;28;20041;-76
2023/05/01 01:56:35;;;;;;;6.70;4.28;;;14.50;99.90;;;;;;5037863;28;20068;-77
2023/05/01 01:59:03;;;;;;;6.37;4.37;;;14.50;99.90;;;;;;5038284;28;20044;-76
2023/05/01 02:01:33;;;;;;;7.10;4.35;;;14.50;99.90;;;;;;5017546;28;20049;-76
2023/05/01 02:04:01;;;;;;;5.40;4.43;;;14.40;99.90;;;;;;5035643;28;20061;-76
2023/05/01 02:06:30;;;;;;;5.30;4.18;;;14.40;99.90;;;;;;5038343;28;20049;-77
2023/05/01 02:08:59;;;;;;;6.80;5.00;;;14.40;99.90;;;;;;5036020;28;20042;-76
2023/05/01 02:11:28;;;;;;;9.25;4.53;;;14.40;99.90;;;;;;5018056;28;20338;-76
2023/05/01 02:13:56;;;;;;;6.40;4.75;;;14.40;99.90;;;;;;5036425;28;20056;-76
2023/05/01 02:16:24;;;;;;;7.13;4.35;;;14.40;99.90;;;;;;5017062;28;20129;-76
2023/05/01 02:18:52;;;;;;;5.05;4.55;;;14.40;99.90;;;;;;5036463;28;20088;-76
2023/05/01 02:21:20;;;;;;;4.78;4.20;;;14.40;99.90;;;;;;5032245;28;20520;-76
2023/05/01 02:23:47;;;;;;;7.35;5.28;;;14.30;99.90;;;;;;5033176;28;20057;-76
2023/05/01 02:26:18;;;;;;;5.82;4.20;;;14.30;99.90;;;;;;5035842;28;20535;-76
2023/05/01 02:28:45;;;;;;;7.47;5.50;;;14.30;99.90;;;;;;5034443;28;20065;-76
2023/05/01 02:31:12;;;;;;;7.15;4.70;;;14.30;99.90;;;;;;5021214;28;20061;-76
2023/05/01 02:33:38;;;;;;;6.40;5.32;;;14.30;99.90;;;;;;5034041;28;20425;-74
2023/05/01 02:36:05;;;;;;;5.80;5.13;;;14.30;99.90;;;;;;5040909;28;20040;-75
2023/05/01 02:38:32;;;;;;;6.03;5.22;;;14.30;99.90;;;;;;5034570;28;20056;-75
2023/05/01 02:41:00;;;;;;;5.95;5.35;;;14.30;99.90;;;;;;5037691;28;20402;-74
2023/05/01 02:43:29;;;;;;;8.80;5.63;;;14.30;99.90;;;;;;5031600;28;20501;-75
2023/05/01 02:45:58;;;;;;;7.60;5.53;;;14.30;99.90;;;;;;5038099;28;20457;-75
2023/05/01 02:48:27;;;;;;;6.60;5.45;;;14.30;99.90;;;;;;5034166;28;20099;-74
2023/05/01 02:50:55;;;;;;;7.80;5.13;;;14.30;99.90;;;;;;5017164;28;20042;-76
2023/05/01 02:53:22;;;;;;;6.65;5.72;;;14.30;99.90;;;;;;5032667;28;20046;-75
2023/05/01 02:55:49;;;;;;;6.20;5.60;;;14.20;99.90;;;;;;5024095;28;20049;-76
2023/05/01 02:58:17;;;;;;;7.75;5.97;;;14.20;99.90;;;;;;5034121;28;20464;-76
2023/05/01 03:00:44;;;;;;;6.45;5.72;;;14.20;99.90;;;;;;5036809;28;20049;-77
2023/05/01 03:03:11;;;;;;;6.03;5.43;;;14.20;99.90;;;;;;5033120;28;20056;-75
2023/05/01 03:05:38;;;;;;;7.97;5.40;;;14.20;99.90;;;;;;5034351;28;20538;-76
2023/05/01 03:08:05;;;;;;;6.32;5.28;;;14.20;99.90;;;;;;5034791;28;20055;-77
2023/05/01 03:10:32;;;;;;;7.05;5.18;;;14.20;99.90;;;;;;5030011;28;20041;-75
2023/05/01 03:12:59;;;;;;;7.10;5.07;;;14.20;99.90;;;;;;5035697;28;20045;-75
2023/05/01 03:15:26;;;;;;;8.45;5.38;;;14.20;99.90;;;;;;5038237;28;20045;-75
2023/05/01 03:17:53;;;;;;;5.88;5.22;;;14.20;99.90;;;;;;5018828;28;20049;-75
2023/05/01 03:20:20;;;;;;;6.15;5.30;;;14.20;99.90;;;;;;5035237;28;20434;-75
2023/05/01 03:22:47;;;;;;;6.65;5.30;;;14.20;99.90;;;;;;5035413;28;20046;-73
2023/05/01 03:25:14;;;;;;;6.65;5.50;;;14.20;99.90;;;;;;5033517;28;20056;-75
2023/05/01 03:27:41;;;;;;;6.53;5.07;;;14.20;99.90;;;;;;5034343;28;20053;-74
2023/05/01 03:30:09;;;;;;;6.05;5.30;;;14.20;99.90;;;;;;5034336;28;20064;-75
2023/05/01 03:32:35;;;;;;;7.22;5.45;;;14.20;99.90;;;;;;5025334;28;20053;-75
2023/05/01 03:35:02;;;;;;;6.68;4.70;;;14.20;99.90;;;;;;5035528;28;20049;-75
2023/05/01 03:37:29;;;;;;;6.07;4.88;;;14.20;99.90;;;;;;5032833;28;20060;-74
2023/05/01 03:39:56;;;;;;;5.82;4.80;;;14.10;99.90;;;;;;5036402;28;20081;-74
2023/05/01 03:42:23;;;;;;;5.13;4.47;;;14.10;99.90;;;;;;5033683;28;20499;-74
2023/05/01 03:44:50;;;;;;;8.35;4.75;;;14.10;99.90;;;;;;5035600;28;20068;-75
2023/05/01 03:47:18;;;;;;;6.35;4.40;;;14.10;99.90;;;;;;5035909;28;20063;-75
2023/05/01 03:49:44;;;;;;;6.93;4.47;;;14.10;99.90;;;;;;5035110;28;20048;-74
2023/05/01 03:52:11;;;;;;;6.03;4.68;;;14.10;99.90;;;;;;5036409;28;20073;-75
2023/05/01 03:54:38;;;;;;;5.93;4.28;;;14.10;99.90;;;;;;5031971;28;20128;-74
2023/05/01 03:57:06;;;;;;;5.13;4.63;;;14.10;99.90;;;;;;5036494;28;20508;-75
2023/05/01 03:59:32;;;;;;;6.32;4.75;;;14.10;99.90;;;;;;5032382;28;20160;-75
2023/05/01 04:01:59;;;;;;;5.60;4.75;;;14.10;99.90;;;;;;5034176;28;20060;-75
2023/05/01 04:04:28;;;;;;;5.97;4.72;;;14.10;99.90;;;;;;5032745;28;20055;-75
2023/05/01 04:06:55;;;;;;;5.82;4.43;;;14.10;99.90;;;;;;5034412;28;20041;-75
2023/05/01 04:09:22;;;;;;;5.90;5.10;;;14.10;99.90;;;;;;5033304;28;20053;-75
2023/05/01 04:11:48;;;;;;;5.38;4.82;;;14.10;99.90;;;;;;5031286;28;20440;-75
2023/05/01 04:14:15;;;;;;;4.85;4.28;;;14.10;99.90;;;;;;5033898;28;20041;-75
2023/05/01 04:16:42;;;;;;;5.15;4.53;;;14.10;99.90;;;;;;5034215;28;20406;-75
2023/05/01 04:19:09;;;;;;;5.30;4.22;;;14.10;99.90;;;;;;5034211;28;20496;-76
2023/05/01 04:21:36;;;;;;;5.70;4.75;;;14.10;99.90;;;;;;5033844;28;20596;-75
2023/05/01 04:24:02;;;;;;;6.85;4.50;;;14.10;99.90;;;;;;5031135;28;20049;-74
2023/05/01 04:26:29;;;;;;;4.50;4.10;;;14.10;99.90;;;;;;5034752;28;20136;-76
2023/05/01 04:28:56;;;;;;;5.30;4.57;;;14.10;99.90;;;;;;5032871;28;20053;-76
2023/05/01 04:31:22;;;;;;;7.22;4.57;;;14.10;99.90;;;;;;5034857;28;20049;-75
2023/05/01 04:33:49;;;;;;;6.50;4.80;;;14.10;99.90;;;;;;5033362;28;20041;-76
2023/05/01 04:36:16;;;;;;;5.03;4.55;;;14.20;99.90;;;;;;5034931;28;20440;-75
2023/05/01 04:38:43;;;;;;;7.03;4.45;;;14.10;99.90;;;;;;5033509;28;20142;-75
2023/05/01 04:41:09;;;;;;;5.43;4.93;;;14.10;99.90;;;;;;5038188;28;20055;-75
2023/05/01 04:43:36;;;;;;;6.63;4.93;;;14.10;99.90;;;;;;5027431;28;20060;-76
2023/05/01 04:46:03;;;;;;;5.18;4.68;;;14.10;99.90;;;;;;5038256;28;20137;-74
2023/05/01 04:48:30;;;;;;;6.28;4.80;;;14.10;99.90;;;;;;5038626;28;20509;-75
2023/05/01 04:50:57;;;;;;;4.95;4.32;;;14.10;99.90;;;;;;5039528;28;20046;-75
2023/05/01 04:53:24;;;;;;;5.38;4.15;;;14.10;99.90;;;;;;5035172;28;20055;-75
2023/05/01 04:55:50;;;;;;;6.43;4.85;;;14.10;99.90;;;;;;5040348;28;20606;-75
2023/05/01 04:58:17;;;;;;;7.00;4.68;;;14.10;99.90;;;;;;5036507;28;20045;-76
2023/05/01 05:00:44;;;;;;;5.32;4.82;;;14.10;99.90;;;;;;5040101;28;20409;-75
2023/05/01 05:03:10;;;;;;;5.35;4.85;;;14.10;99.90;;;;;;5037193;28;20485;-75
2023/05/01 05:05:37;;;;;;;8.60;5.00;;;14.10;99.90;;;;;;5039857;28;20394;-76
2023/05/01 05:08:05;;;;;;;6.38;5.00;;;14.10;99.90;;;;;;5036489;28;20411;-75
2023/05/01 05:10:31;;;;;;;6.28;5.68;;;14.10;99.90;;;;;;5037583;28;20420;-75
2023/05/01 05:12:58;;;;;;;7.50;5.60;;;14.20;99.90;;;;;;5037918;28;20038;-75
2023/05/01 05:15:25;;;;;;;6.55;5.75;;;14.20;99.90;;;;;;5018565;28;20049;-76
2023/05/01 05:17:51;;;;;;;7.55;5.75;;;14.00;99.90;;;;;;5036892;28;20049;-76
2023/05/01 05:20:22;;;;;;;8.40;6.50;;;14.00;99.90;;;;;;5037806;28;20115;-75
2023/05/01 05:22:48;;;;;;;7.43;5.78;;;14.00;99.90;;;;;;5031667;28;20046;-76
2023/05/01 05:25:15;;;;;;;7.57;6.75;;;14.00;99.90;;;;;;5035305;28;20060;-75
2023/05/01 05:27:42;;;;;;;7.35;6.53;;;14.00;99.90;;;;;;5035267;28;20041;-76
2023/05/01 05:30:09;;;;;;;7.75;6.13;;;14.00;99.90;;;;;;5041912;28;20052;-75
2023/05/01 05:32:36;;;;;;;8.48;5.85;;;13.90;99.90;;;;;;5036108;28;20045;-75
2023/05/01 05:35:03;;;;;;;7.57;6.47;;;13.90;99.90;;;;;;5042146;28;20041;-76
2023/05/01 05:37:30;;;;;;;6.80;6.10;;;14.00;99.90;;;;;;5018025;28;20049;-74
2023/05/01 05:39:57;;;;;;;6.57;5.80;;;13.90;99.90;;;;;;5038442;28;20060;-75
2023/05/01 05:42:24;;;;;;;6.82;6.13;;;13.90;99.90;;;;;;5036606;28;20519;-76
2023/05/01 05:44:50;;;;;;;7.35;6.38;;;13.90;99.90;;;;;;5035574;28;20045;-75
2023/05/01 05:47:17;;;;;;;7.63;6.82;;;13.80;99.90;;;;;;5037354;28;20045;-76
2023/05/01 05:49:44;;;;;;;7.43;6.57;;;13.80;99.90;;;;;;5036092;28;20056;-76
2023/05/01 05:52:10;;;;;;;9.93;6.55;;;13.80;99.90;;;;;;5035033;28;20416;-75
2023/05/01 05:54:37;;;;;;;7.15;6.45;;;13.80;99.90;;;;;;5037178;28;20125;-75
2023/05/01 05:57:04;;;;;;;10.35;7.40;;;13.80;99.90;;;;;;5035063;28;20417;-75
2023/05/01 05:59:30;;;;;;;8.77;7.93;;;13.80;99.90;;;;;;5038145;28;20050;-75
2023/05/01 06:01:57;;;;;;;9.13;8.10;;;13.80;99.90;;;;;;5027044;28;20066;-76
2023/05/01 06:04:24;;;;;;;10.07;8.05;;;13.80;99.90;;;;;;5035726;28;20049;-76
2023/05/01 06:06:51;;;;;;;9.88;8.50;;;13.90;99.90;;;;;;5036751;28;20413;-75
2023/05/01 06:09:19;;;;;;;9.02;7.63;;;13.80;99.90;;;;;;5022074;28;20103;-76
2023/05/01 06:11:46;;;;;;;8.68;7.65;;;13.80;99.90;;;;;;5033849;28;20041;-76
2023/05/01 06:14:14;;;;;;;9.32;8.27;;;13.80;99.90;;;;;;5030268;28;20433;-76
2023/05/01 06:16:40;;;;;;;9.60;8.43;;;13.80;99.90;;;;;;5030348;28;20124;-75
2023/05/01 06:19:09;;;;;;;10.13;8.18;;;13.80;99.90;;;;;;5029712;28;20045;-76
2023/05/01 06:21:35;;;;;;;8.75;7.07;;;13.90;99.90;;;;;;5013421;28;20056;-76
2023/05/01 06:24:02;;;;;;;9.05;8.15;;;13.90;99.90;;;;;;5032473;28;20053;-76
2023/05/01 06:26:29;;;;;;;8.25;7.07;;;13.90;99.90;;;;;;5032353;28;20049;-76
2023/05/01 06:28:56;;;;;;;7.78;6.65;;;13.90;99.90;;;;;;5031964;28;20048;-76
2023/05/01 06:31:22;;;;;;;9.02;6.60;;;13.90;99.90;;;;;;5031165;28;20041;-75
2023/05/01 06:33:49;;;;;;;9.20;8.10;;;14.00;99.90;;;;;;5012457;28;20457;-75
2023/05/01 06:36:16;;;;;;;7.47;6.78;;;14.00;99.90;;;;;;5032004;28;20493;-76
2023/05/01 06:38:47;;;;;;;7.43;6.53;;;14.00;99.90;;;;;;5030869;28;20053;-76
2023/05/01 06:41:15;;;;;;;7.70;6.32;;;14.00;99.90;;;;;;5030547;28;20054;-75
2023/05/01 06:43:42;;;;;;;9.10;7.28;;;14.10;99.90;;;;;;5011325;28;20049;-76
2023/05/01 06:46:09;;;;;;;9.90;7.55;;;14.10;99.90;;;;;;5027502;28;20050;-76
2023/05/01 06:48:35;;;;;;;13.65;7.80;;;14.00;99.90;;;;;;5032187;28;20068;-76
2023/05/01 06:51:02;;;;;;;10.20;8.35;;;14.00;99.90;;;;;;5027685;28;20042;-75
2023/05/01 06:53:29;;;;;;;8.07;6.82;;;14.00;99.90;;;;;;5029624;28;20524;-75
2023/05/01 06:55:55;;;;;;;7.97;6.85;;;14.10;99.90;;;;;;5031720;28;20053;-75
2023/05/01 06:58:22;;;;;;;7.53;6.60;;;14.10;99.90;;;;;;5031840;28;20045;-74
2023/05/01 07:00:52;;;;;;;8.88;7.32;;;14.10;99.90;;;;;;5030350;28;20095;-76
2023/05/01 07:03:19;;;;;;;10.38;7.57;;;14.10;99.90;;;;;;5029630;28;20128;-76
2023/05/01 07:05:45;;;;;;;10.10;7.55;;;14.10;99.90;;;;;;5025900;28;20398;-76
2023/05/01 07:08:13;;;;;;;10.18;6.97;;;14.10;99.90;;;;;;5027091;28;20053;-76
2023/05/01 07:10:40;;;;;;;11.60;8.20;;;14.10;99.90;;;;;;5024775;28;20083;-76
2023/05/01 07:13:08;;;;;;;10.77;8.80;;;14.10;99.90;;;;;;5026746;28;20813;-76
2023/05/01 07:15:35;;;;;;;10.57;8.40;;;14.20;99.90;;;;;;5012989;28;20060;-76
2023/05/01 07:18:04;;;;;;;9.65;8.45;;;14.20;99.90;;;;;;5026775;28;20056;-76
2023/05/01 07:20:31;;;;;;;11.07;8.35;;;14.20;99.90;;;;;;5031925;28;20041;-76
2023/05/01 07:22:58;;;;;;;11.25;8.45;;;14.20;99.90;;;;;;5029941;28;20722;-75
2023/05/01 07:25:25;;;;;;;9.45;8.30;;;14.10;99.90;;;;;;5031912;28;20045;-76
2023/05/01 07:27:53;;;;;;;14.70;9.63;;;14.10;99.90;;;;;;5029824;28;20678;-76
2023/05/01 07:30:19;;;;;;;11.25;9.80;;;14.10;99.90;;;;;;5016184;28;20068;-76
2023/05/01 07:32:46;;;;;;;11.65;10.30;;;14.10;99.90;;;;;;5030868;28;20053;-75
2023/05/01 07:35:13;;;;;;;12.50;9.57;;;14.00;99.90;;;;;;5026950;28;20136;-76
2023/05/01 07:37:40;;;;;;;9.48;8.43;;;14.00;99.90;;;;;;5032716;28;20057;-76
2023/05/01 07:40:07;;;;;;;9.68;7.55;;;14.00;99.90;;;;;;5028496;28;20056;-73
2023/05/01 07:42:35;;;;;;;10.50;8.00;;;14.00;99.90;;;;;;5025039;28;20045;-75
2023/05/01 07:45:02;;;;;;;9.43;8.43;;;14.10;99.90;;;;;;5019132;28;20489;-76
2023/05/01 07:47:29;;;;;;;7.57;6.78;;;14.10;99.90;;;;;;5023273;28;20049;-76
2023/05/01 07:49:56;;;;;;;8.80;7.88;;;14.10;99.90;;;;;;5027632;28;20041;-76
2023/05/01 07:52:23;;;;;;;7.85;7.07;;;14.10;99.90;;;;;;5020300;28;20100;-76
2023/05/01 07:54:50;;;;;;;6.28;5.40;;;14.10;99.90;;;;;;5022606;28;20432;-76
2023/05/01 07:57:17;;;;;;;6.15;4.40;;;14.10;99.90;;;;;;5028520;28;20053;-76
2023/05/01 07:59:44;;;;;;;6.60;5.10;;;14.10;99.90;;;;;;5029028;28;20505;-75
2023/05/01 08:02:12;;;;;;;6.72;6.10;;;14.20;99.90;;;;;;5028518;28;20501;-76
2023/05/01 08:04:40;;;;;;;4.40;3.97;;;14.20;99.90;;;;;;5028733;28;20045;-76
2023/05/01 08:07:07;;;;;;;4.05;3.65;;;14.20;99.90;;;;;;5027392;28;20099;-76
2023/05/01 08:09:34;;;;;;;3.67;3.35;;;14.30;99.90;;;;;;5025874;28;20044;-76
2023/05/01 08:12:02;;;;;;;3.80;3.50;;;14.40;99.90;;;;;;5030300;28;20044;-76
2023/05/01 08:14:29;;;;;;;3.97;3.58;;;14.50;99.90;;;;;;5029460;28;20425;-76
2023/05/01 08:16:56;;;;;;;3.20;2.90;;;14.60;99.90;;;;;;5029913;28;20068;-76
2023/05/01 08:19:24;;;;;;;2.88;2.60;;;14.70;99.90;;;;;;5029445;28;20519;-75
2023/05/01 08:21:50;;;;;;;2.67;2.40;;;14.80;99.90;;;;;;5028231;28;20421;-76
2023/05/01 08:24:17;;;;;;;3.13;2.20;;;14.90;99.90;;;;;;5031772;28;20045;-76
2023/05/01 08:26:44;;;;;;;4.10;2.08;;;15.10;99.90;;;;;;5028812;28;20053;-75
2023/05/01 08:29:11;;;;;;;2.00;1.80;;;15.20;99.90;;;;;;5029884;28;20068;-76
2023/05/01 08:31:38;;;;;;;2.05;1.70;;;15.30;99.90;;;;;;5031746;28;20049;-76
2023/05/01 08:34:05;;;;;;;1.85;1.60;;;15.40;99.90;;;;;;5034849;28;20041;-76
2023/05/01 08:36:32;;;;;;;1.48;1.38;;;15.50;99.90;;;;;;5015919;28;20042;-76
2023/05/01 08:38:58;;;;;;;1.45;1.30;;;15.60;99.90;;;;;;5031454;28;20045;-77
2023/05/01 08:41:27;;;;;;;1.77;1.67;;;15.70;99.90;;;;;;5034666;28;20544;-76
2023/05/01 08:43:56;;;;;;;1.88;1.45;;;15.80;99.90;;;;;;5032777;28;20054;-76
2023/05/01 08:46:43;;;;;;;1.50;1.30;;;15.90;99.90;;;;;;5024447;28;20053;-76
2023/05/01 08:49:14;;;;;;;1.27;1.17;;;16.00;99.90;;;;;;5032476;28;20049;-76
2023/05/01 08:51:43;;;;;;;1.38;1.20;;;16.10;99.90;;;;;;5030968;28;20038;-76
2023/05/01 08:54:11;;;;;;;1.52;1.23;;;16.30;99.90;;;;;;5033577;28;20053;-76
2023/05/01 08:56:38;;;;;;;1.50;1.20;;;16.30;99.90;;;;;;5031857;28;20413;-76
2023/05/01 08:59:07;;;;;;;1.42;1.20;;;16.40;99.90;;;;;;5036568;28;20045;-76
2023/05/01 09:01:34;;;;;;;1.38;1.27;;;16.50;99.90;;;;;;5032098;28;20053;-76
2023/05/01 09:04:02;;;;;;;1.98;1.42;;;16.50;99.90;;;;;;5037072;28;20049;-76
2023/05/01 09:06:31;;;;;;;11.55;2.38;;;16.60;99.90;;;;;;5034016;28;20052;-76
2023/05/01 09:08:58;;;;;;;1.83;1.58;;;16.60;99.90;;;;;;5033555;28;20049;-77
2023/05/01 09:11:25;;;;;;;1.33;1.23;;;16.60;99.90;;;;;;5030702;28;20038;-76
2023/05/01 09:13:53;;;;;;;1.77;1.23;;;16.60;99.90;;;;;;5033783;28;20050;-76
2023/05/01 09:16:20;;;;;;;1.20;1.10;;;16.60;99.90;;;;;;5034113;28;20132;-76
2023/05/01 09:18:47;;;;;;;1.75;1.48;;;16.60;99.90;;;;;;5032366;28;20049;-76
2023/05/01 09:21:14;;;;;;;1.75;1.02;;;16.60;99.90;;;;;;5032964;28;20050;-76
2023/05/01 09:23:41;;;;;;;1.58;1.30;;;16.60;99.90;;;;;;5021146;28;20046;-76
2023/05/01 09:26:07;;;;;;;1.85;1.10;;;16.60;99.90;;;;;;5032864;28;20056;-76
2023/05/01 09:28:41;;;;;;;3.30;1.33;;;16.60;99.90;;;;;;5037871;28;20041;-77
2023/05/01 09:31:26;;;;;;;1.13;1.02;;;16.60;99.90;;;;;;5035189;28;20055;-76
2023/05/01 09:33:56;;;;;;;1.48;1.20;;;16.60;99.90;;;;;;5038571;28;20045;-76
2023/05/01 09:36:27;;;;;;;;;;;16.70;99.90;;;;;;5037016;28;20042;-76
2023/05/01 09:38:53;;;;;;;1.85;1.58;;;16.60;99.90;;;;;;5040136;28;19921;-76
2023/05/01 09:41:21;;;;;;;1.25;1.05;;;16.70;99.90;;;;;;5037327;28;20059;-77
2023/05/01 09:43:53;;;;;;;1.35;1.10;;;16.80;99.90;;;;;;5022232;28;20041;-76
2023/05/01 09:46:22;;;;;;;1.95;1.00;;;16.90;99.90;;;;;;5036480;28;20056;-76
2023/05/01 09:49:00;;;;;;;6.20;1.10;;;17.00;99.90;;;;;;5018787;28;20125;-77
2023/05/01 09:51:31;;;;;;;1.88;1.10;;;17.00;99.90;;;;;;5032664;28;20049;-76
2023/05/01 09:54:00;;;;;;;2.05;1.10;;;17.10;99.90;;;;;;5033788;28;20050;-76
2023/05/01 09:56:30;;;;;;;1.02;0.85;;;17.20;99.90;;;;;;5033576;28;20421;-76
2023/05/01 09:59:13;;;;;;;1.15;0.80;;;17.30;99.90;;;;;;5035961;28;20083;-76
2023/05/01 10:01:43;;;;;;;1.55;1.15;;;17.30;99.90;;;;;;5019611;28;20055;-77
2023/05/01 10:04:10;;;;;;;1.90;0.98;;;17.30;99.90;;;;;;5026701;28;20053;-76
2023/05/01 10:06:38;;;;;;;1.85;0.85;;;17.30;99.90;;;;;;5037755;28;20049;-74
2023/05/01 10:09:08;;;;;;;2.28;1.00;;;17.30;99.90;;;;;;5030929;28;20119;-75
2023/05/01 10:11:56;;;;;;;1.30;1.20;;;17.30;99.90;;;;;;5034569;28;20041;-76
2023/05/01 10:14:25;;;;;;;1.55;0.90;;;17.30;99.90;;;;;;5031775;28;20064;-75
2023/05/01 10:16:52;;;;;;;1.10;1.00;;;17.30;99.90;;;;;;5016866;28;20054;-76
2023/05/01 10:19:20;;;;;;;1.65;1.35;;;17.20;99.90;;;;;;5017226;28;20730;-75
2023/05/01 10:21:48;;;;;;;2.10;1.80;;;17.20;99.90;;;;;;5030580;28;20051;-76
2023/05/01 10:24:15;;;;;;;2.40;0.98;;;17.20;99.90;;;;;;5019223;28;20457;-76
2023/05/01 10:26:43;;;;;;;2.00;1.33;;;17.20;99.90;;;;;;5016126;28;20052;-77
2023/05/01 10:29:11;;;;;;;3.08;1.23;;;17.20;99.90;;;;;;5034874;28;20053;-76
2023/05/01 10:31:38;;;;;;;1.40;1.25;;;17.20;99.90;;;;;;5034499;28;20048;-76
2023/05/01 10:34:09;;;;;;;1.15;1.02;;;17.20;99.90;;;;;;5035107;28;20129;-76
2023/05/01 10:36:40;;;;;;;1.40;1.23;;;17.20;99.90;;;;;;5015311;28;20038;-76
2023/05/01 10:39:34;;;;;;;1.42;1.30;;;17.20;99.90;;;;;;5036330;28;20053;-77
2023/05/01 10:42:13;;;;;;;1.65;1.33;;;17.20;99.90;;;;;;5034081;28;20049;-76
2023/05/01 10:44:41;;;;;;;1.83;1.20;;;17.20;99.90;;;;;;5034980;28;20092;-76
2023/05/01 10:47:26;;;;;;;4.45;4.03;;;17.10;99.90;;;;;;5033970;28;20056;-76
2023/05/01 10:50:03;;;;;;;1.92;1.58;;;17.10;99.90;;;;;;5033188;28;20045;-77
2023/05/01 10:52:50;;;;;;;2.65;1.58;;;17.10;99.90;;;;;;5036291;28;20045;-76
2023/05/01 10:55:34;;;;;;;5.00;1.52;;;17.20;99.90;;;;;;5037303;28;20081;-76
2023/05/01 10:58:00;;;;;;;2.75;1.80;;;17.20;99.90;;;;;;5032852;28;20485;-76
2023/05/01 11:00:27;;;;;;;2.85;2.28;;;17.20;99.90;;;;;;5036680;28;20049;-76
2023/05/01 11:03:21;;;;;;;5.55;2.22;;;17.30;99.90;;;;;;5033383;28;20045;-75
2023/05/01 11:06:03;;;;;;;2.28;2.08;;;17.30;99.90;;;;;;5033711;28;20045;-76
2023/05/01 11:08:31;;;;;;;2.42;2.10;;;17.30;99.90;;;;;;5034335;28;20045;-77
2023/05/01 11:11:24;;;;;;;4.40;1.90;;;17.30;99.90;;;;;;5034637;28;20041;-77
2023/05/01 11:13:58;;;;;;;3.08;2.22;;;17.20;99.90;;;;;;5034981;28;20046;-77
2023/05/01 11:16:40;;;;;;;2.05;1.85;;;17.20;99.90;;;;;;5027730;28;20498;-76
2023/05/01 11:19:32;;;;;;;2.60;2.25;;;17.30;99.90;;;;;;5034456;28;20140;-77
2023/05/01 11:21:59;;;;;;;7.47;2.08;;;17.30;99.90;;;;;;5035031;28;20049;-77
2023/05/01 11:24:32;;;;;;;4.90;3.88;;;17.40;99.90;;;;;;5019385;28;20972;-77
2023/05/01 11:27:00;;;;;;;5.13;3.90;;;17.50;99.90;;;;;;5033486;28;20056;-76
2023/05/01 11:29:33;;;;;;;4.22;2.85;;;17.60;99.90;;;;;;5038443;28;20063;-76
2023/05/01 11:32:00;;;;;;;4.70;2.05;;;17.70;99.90;;;;;;5033663;28;20037;-76
2023/05/01 11:34:33;;;;;;;3.03;2.00;;;17.80;99.90;;;;;;5037654;28;20055;-77
2023/05/01 11:37:00;;;;;;;2.90;1.90;;;17.90;99.90;;;;;;5033883;28;20053;-77
2023/05/01 11:39:27;;;;;;;3.10;2.03;;;18.00;99.90;;;;;;5017486;28;20056;-77
2023/05/01 11:42:10;;;;;;;5.07;3.72;;;18.10;99.90;;;;;;5030642;28;20053;-77
2023/05/01 11:44:37;;;;;;;2.92;2.20;;;18.10;99.90;;;;;;5031731;28;20493;-77
2023/05/01 11:47:06;;;;;;;2.22;1.77;;;18.20;99.90;;;;;;5034571;28;20050;-77
2023/05/01 11:49:33;;;;;;;3.78;2.67;;;18.30;99.90;;;;;;5022328;28;20048;-77
2023/05/01 11:51:59;;;;;;;2.75;1.77;;;18.50;99.90;;;;;;5026412;28;20041;-78
2023/05/01 11:54:26;;;;;;;2.55;1.95;;;18.60;99.90;;;;;;5034781;28;20051;-77
2023/05/01 11:57:00;;;;;;;2.88;2.10;;;18.70;99.90;;;;;;5034962;28;20053;-77
2023/05/01 11:59:26;;;;;;;4.38;2.22;;;18.80;99.90;;;;;;5036593;28;20123;-76
2023/05/01 12:01:53;;;;;;;2.25;1.90;;;19.00;99.90;;;;;;5035698;28;20136;-77
2023/05/01 12:04:26;;;;;;;1.73;1.63;;;19.00;99.90;;;;;;5037295;28;20068;-77
2023/05/01 12:06:57;;;;;;;2.75;1.83;;;19.10;99.90;;;;;;5030914;28;20042;-78
2023/05/01 12:09:28;;;;;;;2.75;1.70;;;19.10;99.90;;;;;;5037206;28;20092;-77
2023/05/01 12:11:56;;;;;;;;;;;19.10;99.90;;;;;;5031485;28;20132;-76
2023/05/01 12:14:23;;;;;;;3.67;2.15;;;19.20;99.90;;;;;;5033655;28;19924;-76
2023/05/01 12:16:50;;;;;;;2.05;1.88;;;19.20;99.90;;;;;;5033558;28;20045;-76
2023/05/01 12:19:17;;;;;;;2.20;2.00;;;19.20;99.90;;;;;;5030151;28;20107;-76
2023/05/01 12:21:46;;;;;;;2.75;2.00;;;19.10;99.90;;;;;;5031072;28;20480;-76
2023/05/01 12:24:15;;;;;;;2.65;2.22;;;19.20;99.90;;;;;;5031880;28;20420;-76
2023/05/01 12:26:43;;;;;;;2.92;2.25;;;19.20;99.90;;;;;;5034310;28;20052;-76
2023/05/01 12:29:11;;;;;;;2.38;1.80;;;19.20;99.90;;;;;;5034324;28;20050;-75
2023/05/01 12:31:48;;;;;;;3.85;2.13;;;19.30;99.90;;;;;;5034708;28;20484;-76
2023/05/01 12:34:15;;;;;;;2.63;2.42;;;19.40;99.90;;;;;;5035741;28;20508;-76
2023/05/01 12:36:52;;;;;;;3.75;2.35;;;19.40;99.90;;;;;;5035286;28;20048;-76
2023/05/01 12:39:19;;;;;;;3.63;2.60;;;19.50;99.90;;;;;;5036766;28;20536;-76
2023/05/01 12:41:50;;;;;;;3.30;2.20;;;19.60;99.90;;;;;;5031929;28;20045;-76
2023/05/01 12:44:18;;;;;;;2.22;1.60;;;19.60;99.90;;;;;;5036249;28;20075;-76
2023/05/01 12:46:51;;;;;;;3.30;1.73;;;19.60;99.90;;;;;;5031350;28;20050;-76
2023/05/01 12:49:19;;;;;;;2.65;1.70;;;19.60;99.90;;;;;;5034038;28;20045;-75
2023/05/01 12:51:48;;;;;;;2.35;2.15;;;19.70;99.90;;;;;;5014877;28;20088;-75
2023/05/01 12:54:23;;;;;;;2.30;1.92;;;19.80;99.90;;;;;;5028888;28;20128;-74
2023/05/01 12:56:53;;;;;;;2.28;1.77;;;19.80;99.90;;;;;;5017042;28;20545;-78